Jackson Hole (JAC/KJAC)

Information

Location
Jackson Hole, WY
Local Time
23:05 / 11:05 pm
GMT Time
06:05 / 6:05 am
Gates
A4
No FAA reported delays
METAR KJAC 140556Z AUTO 34004KT 10SM CLR M07/M07 RMK AO2 SLPNO 60000 T10671072 11028 21078 FZRANO $
TAF KJAC 140528Z 1406/1506 36008KT 4SM BR SCT003 SCT070 TEMPO 1409/1413 2SM BR FM141700 35007KT P6SM SCT200 AMD LTD TO CLD VIS AND WIND